Time;durP1;ratioP1;P1;durP2;ratioP2;P2;SDS_P1;SDS_P2;PMS_P1;PMS_P2;Temp;Humidity;BMP_temperature;BMP_pressure;BME280_temperature;BME280_humidity;BME280_pressure;Samples;Min_cycle;Max_cycle;Signal;HPM_P1;HPM_P2
2022/12/26 00:02:00;;;;;;;16.50;10.90;;;;;;;-0.25;95.34;100433.79;106751;1309;22220;-59
2022/12/26 00:04:27;;;;;;;15.80;9.90;;;;;;;-0.29;95.50;100423.69;106754;1301;22120;-59
2022/12/26 00:07:14;;;;;;;15.70;9.50;;;;;;;-0.27;95.61;100422.61;106641;1303;138466;-59
2022/12/26 00:09:40;;;;;;;13.50;9.30;;;;;;;-0.23;95.93;100424.15;106745;1304;22815;-60
2022/12/26 00:12:07;;;;;;;15.40;10.30;;;;;;;-0.22;95.68;100423.89;106669;1309;138365;-59
2022/12/26 00:14:34;;;;;;;13.90;10.00;;;;;;;-0.21;95.64;100423.05;106733;1303;22165;-60
2022/12/26 00:17:01;;;;;;;;;;;;;;;-0.19;95.64;100425.27;106829;1301;22352;-60
2022/12/26 00:19:27;;;;;;;12.50;8.70;;;;;;;-0.17;95.77;100430.83;106647;1294;123994;-60
2022/12/26 00:21:56;;;;;;;17.30;9.70;;;;;;;-0.17;95.70;100427.25;106800;1306;22284;-59
2022/12/26 00:24:23;;;;;;;15.80;9.40;;;;;;;-0.18;95.51;100429.09;106713;1300;138284;-59
2022/12/26 00:26:49;;;;;;;12.40;8.20;;;;;;;-0.19;95.30;100429.55;106771;1303;22140;-60
2022/12/26 00:29:16;;;;;;;16.40;9.00;;;;;;;-0.22;95.11;100425.77;106631;1296;137875;-59
2022/12/26 00:31:43;;;;;;;;;;;;;;;-0.24;95.15;100427.44;106744;1303;22336;-59
2022/12/26 00:34:09;;;;;;;12.20;8.10;;;;;;;-0.24;95.11;100427.67;106665;1305;22120;-59
2022/12/26 00:36:36;;;;;;;12.70;9.20;;;;;;;-0.28;94.89;100428.10;106630;1300;138180;-59
2022/12/26 00:39:06;;;;;;;12.40;8.90;;;;;;;-0.32;95.04;100422.59;106751;1295;22131;-54
2022/12/26 00:41:33;;;;;;;13.30;8.60;;;;;;;-0.29;94.73;100429.66;102124;1291;138826;-54
2022/12/26 00:43:59;;;;;;;16.20;9.60;;;;;;;-0.32;94.79;100428.52;102257;1300;22544;-54
2022/12/26 00:46:26;;;;;;;;;;;;;;;-0.34;94.64;100432.48;102313;1295;25238;-55
2022/12/26 00:48:53;;;;;;;14.80;9.40;;;;;;;-0.47;94.44;100431.02;102210;1296;124560;-55
2022/12/26 00:51:20;;;;;;;14.20;9.40;;;;;;;-0.56;94.62;100427.19;102254;1289;22478;-55
2022/12/26 00:53:47;;;;;;;16.10;9.60;;;;;;;-0.60;94.90;100430.77;102187;1296;138670;-55
2022/12/26 00:56:14;;;;;;;12.10;7.90;;;;;;;-0.60;95.08;100440.27;102205;1310;22617;-55
2022/12/26 00:58:41;;;;;;;12.70;8.20;;;;;;;-0.63;94.82;100440.05;102287;1294;25380;-55
2022/12/26 01:01:13;;;;;;;;;;;;;;;-0.66;94.99;100436.64;102198;1294;139641;-55
2022/12/26 01:03:40;;;;;;;11.40;7.90;;;;;;;-0.66;95.22;100439.28;106735;1303;22100;-56
2022/12/26 01:06:07;;;;;;;11.60;8.10;;;;;;;-0.65;95.10;100437.73;106532;1289;138971;-56
2022/12/26 01:08:34;;;;;;;10.80;7.10;;;;;;;-0.65;95.29;100439.27;106634;1303;22883;-56
2022/12/26 01:11:02;;;;;;;12.00;8.30;;;;;;;-0.65;95.35;100440.95;106719;1294;22193;-57
2022/12/26 01:13:29;;;;;;;12.80;7.20;;;;;;;-0.61;95.47;100434.17;106603;1304;138349;-56
2022/12/26 01:15:55;;;;;;;13.40;8.00;;;;;;;-0.56;95.60;100434.17;106603;1303;22257;-56
2022/12/26 01:18:22;;;;;;;;;;;;;;;-0.51;95.48;100434.66;106487;1303;139788;-56
2022/12/26 01:20:49;;;;;;;11.50;8.70;;;;;;;-0.48;95.40;100428.98;106732;1302;22143;-56
2022/12/26 01:23:16;;;;;;;12.30;8.30;;;;;;;-0.47;95.30;100430.09;106607;1303;138016;-56
2022/12/26 01:25:43;;;;;;;13.40;8.60;;;;;;;-0.45;95.37;100428.63;106708;1302;22142;-56
2022/12/26 01:28:29;;;;;;;12.20;8.10;;;;;;;-0.44;95.03;100426.55;106727;1303;22201;-56
2022/12/26 01:31:00;;;;;;;12.80;9.00;;;;;;;-0.43;95.09;100429.61;106689;1302;137953;-56
2022/12/26 01:33:27;;;;;;;12.10;7.90;;;;;;;-0.43;95.07;100427.88;106782;1300;22154;-56
2022/12/26 01:35:53;;;;;;;;;;;;;;;-0.43;95.08;100428.46;106598;1295;139075;-56
2022/12/26 01:38:20;;;;;;;14.70;9.00;;;;;;;-0.45;94.85;100425.28;106766;1293;23216;-56
2022/12/26 01:40:48;;;;;;;;;;;;;;;-0.46;95.02;100427.36;106701;1302;23241;-60
2022/12/26 01:43:14;;;;;;;12.20;8.30;;;;;;;-0.47;95.05;100425.81;106618;1302;124359;-60
2022/12/26 01:45:42;;;;;;;;;;;;;;;-0.47;95.01;100431.33;106726;1295;22409;-60
2022/12/26 01:48:18;;;;;;;14.20;9.20;;;;;;;-0.50;95.20;100433.84;106618;1298;124676;-60
2022/12/26 01:50:51;;;;;;;13.90;9.00;;;;;;;-0.48;95.17;100430.89;106724;1302;23524;-60
2022/12/26 01:53:20;;;;;;;12.80;8.70;;;;;;;-0.43;95.66;100428.29;106535;1305;138112;-60
2022/12/26 01:55:51;;;;;;;13.30;9.20;;;;;;;-0.38;95.62;100430.56;106713;1300;22128;-60
2022/12/26 01:58:22;;;;;;;16.50;10.30;;;;;;;-0.33;95.76;100428.44;106785;1303;22133;-60
2022/12/26 02:00:49;;;;;;;14.70;9.70;;;;;;;-0.30;95.55;100431.02;106700;1303;139173;-60
2022/12/26 02:06:01;;;;;;;13.20;9.20;;;;;;;-0.30;95.30;100430.98;106792;1287;140119;-60
2022/12/26 02:08:29;;;;;;;16.00;8.60;;;;;;;-0.29;95.33;100429.82;106767;1297;22079;-60
2022/12/26 02:11:05;;;;;;;11.40;8.30;;;;;;;-0.27;95.25;100437.60;106753;1298;22163;-60
2022/12/26 02:13:33;;;;;;;12.20;7.40;;;;;;;-0.24;95.29;100434.09;106602;1302;22206;-60
2022/12/26 02:16:02;;;;;;;12.60;8.10;;;;;;;-0.24;95.25;100431.98;106622;1302;22508;-60
2022/12/26 02:18:28;;;;;;;11.40;7.70;;;;;;;-0.24;95.25;100432.09;106607;1303;139851;-60
2022/12/26 02:21:09;;;;;;;9.20;7.00;;;;;;;-0.24;95.05;100431.55;106785;1303;22251;-60
2022/12/26 02:23:36;;;;;;;10.80;7.30;;;;;;;-0.23;95.32;100431.83;106696;1302;140229;-60
2022/12/26 02:26:29;;;;;;;9.80;7.20;;;;;;;-0.25;95.12;100424.48;106806;1301;22159;-60
2022/12/26 02:29:20;;;;;;;9.70;6.60;;;;;;;-0.23;94.93;100428.97;106332;1300;22163;-60
2022/12/26 02:32:05;;;;;;;11.40;8.20;;;;;;;-0.23;95.10;100432.52;106111;1310;22951;-60
2022/12/26 02:34:50;;;;;;;11.50;7.80;;;;;;;-0.23;94.89;100427.84;106247;1308;22248;-60
2022/12/26 02:37:35;;;;;;;10.60;7.80;;;;;;;-0.21;94.98;100424.59;106154;1308;138798;-60
2022/12/26 02:40:35;;;;;;;12.00;8.00;;;;;;;-0.20;94.77;100420.35;104528;1301;22536;-58
2022/12/26 02:43:09;;;;;;;8.90;6.90;;;;;;;-0.17;94.86;100420.13;101551;1294;138124;-59
2022/12/26 02:48:38;;;;;;;10.40;6.70;;;;;;;-0.22;94.71;100420.50;106047;1300;140034;-60
2022/12/26 03:15:09;;;;;;;9.40;6.60;;;;;;;-0.32;94.10;100416.73;106618;1302;22094;-60
2022/12/26 03:17:54;;;;;;;9.40;6.30;;;;;;;-0.32;94.29;100413.49;106464;1302;138222;-60
2022/12/26 03:20:22;;;;;;;8.10;6.00;;;;;;;-0.32;94.27;100410.70;106536;1305;22141;-60
2022/12/26 03:23:02;;;;;;;7.90;5.90;;;;;;;-0.32;93.95;100408.19;106812;1302;22986;-60
2022/12/26 03:28:14;;;;;;;7.40;5.60;;;;;;;-0.35;94.00;100411.34;106765;1295;22970;-60
2022/12/26 03:30:47;;;;;;;13.80;8.10;;;;;;;-0.36;94.02;100411.94;106489;1302;138547;-60
2022/12/26 03:36:00;;;;;;;20.00;10.80;;;;;;;-0.37;93.81;100417.19;106638;1302;138533;-60
2022/12/26 03:38:54;;;;;;;206.20;64.00;;;;;;;-0.35;93.65;100421.47;106618;1305;22171;-60
2022/12/26 04:19:26;;;;;;;12.90;7.70;;;;;;;-0.37;94.01;100440.80;106776;1294;139621;-61
2022/12/26 04:45:09;;;;;;;13.00;9.50;;;;;;;-0.30;93.74;100445.60;101896;1292;22921;-60
2022/12/26 04:47:36;;;;;;;11.80;9.00;;;;;;;-0.27;93.63;100445.13;101764;1292;138827;-60
2022/12/26 04:50:12;;;;;;;49.90;28.90;;;;;;;-0.27;93.54;100448.67;101783;1288;24218;-60
2022/12/26 04:52:57;;;;;;;83.10;45.60;;;;;;;-0.27;93.54;100448.81;106377;1307;23357;-59
2022/12/26 04:55:26;;;;;;;33.90;18.70;;;;;;;-0.28;93.38;100452.83;106207;1307;138369;-58
2022/12/26 04:57:53;;;;;;;19.10;11.30;;;;;;;-0.29;93.46;100455.98;106364;1294;22187;-58
2022/12/26 05:00:20;;;;;;;15.90;9.60;;;;;;;-0.30;93.63;100463.42;106359;1305;138277;-58
2022/12/26 05:11:12;;;;;;;12.60;8.80;;;;;;;-0.29;93.48;100479.92;106771;1300;139138;-58
2022/12/26 05:13:39;;;;;;;10.70;7.50;;;;;;;-0.28;93.48;100485.04;106831;1293;22129;-60
2022/12/26 05:29:57;;;;;;;11.30;8.20;;;;;;;-0.25;93.05;100501.70;106557;1303;138322;-59
2022/12/26 05:35:09;;;;;;;12.00;7.50;;;;;;;-0.22;92.99;100492.78;106813;1287;22174;-59
2022/12/26 05:37:36;;;;;;;10.00;6.90;;;;;;;-0.22;92.80;100493.29;106816;1278;139326;-59
2022/12/26 05:40:03;;;;;;;10.00;7.30;;;;;;;-0.21;92.85;100494.22;104881;1305;25355;-59
2022/12/26 05:42:30;;;;;;;10.90;8.00;;;;;;;-0.21;92.73;100489.57;106733;1294;139893;-59
2022/12/26 05:44:56;;;;;;;9.50;7.30;;;;;;;-0.20;92.75;100488.67;106807;1302;22126;-59
2022/12/26 05:47:23;;;;;;;;;;;;;;;-0.22;92.52;100488.86;106871;1287;138237;-59
2022/12/26 05:49:51;;;;;;;10.80;5.70;;;;;;;-0.23;92.57;100487.15;106844;1303;22144;-60
2022/12/26 05:52:18;;;;;;;11.80;8.50;;;;;;;-0.25;92.71;100482.55;106954;1287;22122;-60
2022/12/26 05:54:45;;;;;;;13.30;8.40;;;;;;;-0.27;92.68;100483.96;106708;1303;138391;-59
2022/12/26 05:57:11;;;;;;;14.90;9.40;;;;;;;-0.28;92.60;100483.46;106857;1303;22306;-59
2022/12/26 05:59:38;;;;;;;14.00;8.90;;;;;;;-0.30;92.59;100483.25;106678;1303;139172;-59
2022/12/26 06:02:05;;;;;;;14.00;9.20;;;;;;;-0.31;92.79;100486.61;106757;1301;22206;-60
2022/12/26 06:04:33;;;;;;;;;;;;;;;-0.33;92.60;100485.05;106831;1302;22481;-59
2022/12/26 06:07:00;;;;;;;15.90;10.90;;;;;;;-0.33;92.83;100487.23;106781;1302;124876;-61
2022/12/26 06:09:26;;;;;;;14.50;8.50;;;;;;;-0.35;92.76;100485.96;106831;1303;22210;-60
2022/12/26 06:11:53;;;;;;;17.60;11.00;;;;;;;-0.36;92.71;100490.34;106665;1302;138377;-59
2022/12/26 06:14:20;;;;;;;15.60;10.10;;;;;;;-0.37;92.90;100489.00;106816;1294;22135;-60
2022/12/26 06:16:47;;;;;;;17.00;10.60;;;;;;;-0.36;93.08;100488.90;106967;1300;22206;-59
2022/12/26 06:19:14;;;;;;;14.10;9.50;;;;;;;-0.37;93.25;100483.74;106711;1295;138216;-60
2022/12/26 06:21:40;;;;;;;14.10;9.10;;;;;;;-0.36;93.11;100485.69;106861;1303;23067;-60
2022/12/26 06:24:07;;;;;;;16.70;10.00;;;;;;;-0.37;93.18;100483.47;106753;1294;138234;-60
2022/12/26 06:26:34;;;;;;;18.50;9.90;;;;;;;-0.39;93.02;100480.96;106823;1303;22155;-60
2022/12/26 06:29:00;;;;;;;15.20;9.50;;;;;;;-0.40;92.97;100478.39;106877;1301;22331;-60
2022/12/26 06:31:27;;;;;;;14.80;8.90;;;;;;;-0.40;93.19;100480.72;106851;1299;138081;-60
2022/12/26 06:33:55;;;;;;;13.70;9.10;;;;;;;-0.40;93.23;100484.70;106836;1301;22165;-60
2022/12/26 06:36:22;;;;;;;14.30;8.80;;;;;;;-0.42;92.93;100488.84;106723;1293;139060;-60
2022/12/26 06:38:49;;;;;;;14.20;8.80;;;;;;;-0.43;92.94;100483.02;106848;1294;23411;-60
2022/12/26 06:41:16;;;;;;;;;;;;;;;-0.43;93.06;100479.61;106820;1303;138779;-60
2022/12/26 06:43:43;;;;;;;16.10;9.60;;;;;;;-0.42;93.01;100478.97;106832;1303;22156;-60
2022/12/26 06:46:11;;;;;;;;;;;;;;;-0.42;93.10;100475.02;106946;1303;22430;-60
2022/12/26 06:48:38;;;;;;;25.70;15.10;;;;;;;-0.40;92.84;100474.70;106737;1287;126096;-60
2022/12/26 06:51:06;;;;;;;19.00;11.60;;;;;;;-0.39;93.14;100475.31;106810;1302;22358;-60
2022/12/26 06:53:33;;;;;;;11.10;8.20;;;;;;;-0.39;93.05;100476.02;106726;1302;138603;-60
2022/12/26 06:56:14;;;;;;;13.00;7.70;;;;;;;-0.36;92.84;100479.46;106817;1294;22216;-60
2022/12/26 06:58:41;;;;;;;13.20;9.90;;;;;;;-0.34;92.97;100476.77;106972;1300;22151;-60
2022/12/26 07:01:09;;;;;;;;;;;;;;;-0.33;92.91;100473.92;106791;1303;139850;-61
2022/12/26 07:03:36;;;;;;;14.00;9.50;;;;;;;-0.30;93.00;100470.77;106877;1295;22120;-60
2022/12/26 07:06:04;;;;;;;18.20;13.40;;;;;;;-0.27;92.99;100469.42;106730;1303;138110;-60
2022/12/26 07:08:31;;;;;;;20.20;12.80;;;;;;;-0.26;92.84;100466.73;106765;1300;22142;-61
2022/12/26 07:10:57;;;;;;;;;;;;;;;-0.26;92.88;100462.34;106862;1302;22443;-60
2022/12/26 07:13:24;;;;;;;32.30;20.60;;;;;;;-0.26;92.70;100456.98;106754;1293;124719;-62
2022/12/26 07:15:51;;;;;;;28.10;17.40;;;;;;;-0.26;92.78;100457.48;106841;1294;22922;-60
2022/12/26 07:18:18;;;;;;;33.70;20.30;;;;;;;-0.25;92.69;100458.86;106869;1300;138211;-60
2022/12/26 07:20:45;;;;;;;27.30;17.50;;;;;;;-0.24;92.53;100454.45;106814;1277;22231;-60
2022/12/26 07:23:11;;;;;;;26.50;18.60;;;;;;;-0.22;92.55;100453.27;106846;1303;22968;-60
2022/12/26 07:25:38;;;;;;;25.80;16.40;;;;;;;-0.19;92.32;100453.55;106737;1294;23429;-60
2022/12/26 07:28:05;;;;;;;24.40;16.70;;;;;;;-0.19;92.20;100453.48;106788;1294;22238;-61
2022/12/26 07:30:32;;;;;;;24.20;15.90;;;;;;;-0.20;92.29;100450.61;106750;1301;140351;-60
2022/12/26 07:32:58;;;;;;;;;;;;;;;-0.17;92.24;100456.68;106857;1303;22338;-60
2022/12/26 07:35:25;;;;;;;22.60;13.90;;;;;;;-0.14;92.20;100455.30;106879;1300;124496;-60
2022/12/26 07:37:52;;;;;;;24.60;16.40;;;;;;;-0.14;91.96;100455.05;106836;1293;22143;-60
2022/12/26 07:40:19;;;;;;;;;;;;;;;-0.15;92.03;100454.87;106956;1290;22368;-62
2022/12/26 07:42:45;;;;;;;28.20;17.00;;;;;;;-0.15;91.99;100458.13;106727;1302;124180;-62
2022/12/26 07:45:12;;;;;;;31.30;16.60;;;;;;;-0.15;91.81;100453.48;106957;1300;22147;-62
2022/12/26 07:47:39;;;;;;;;;;;;;;;-0.16;91.73;100454.41;106848;1300;139683;-61
2022/12/26 07:50:06;;;;;;;22.30;14.60;;;;;;;-0.15;91.83;100452.52;106821;1301;22888;-61
2022/12/26 07:52:33;;;;;;;25.70;20.20;;;;;;;-0.13;91.82;100451.74;106801;1301;22160;-61
2022/12/26 07:54:59;;;;;;;27.20;17.90;;;;;;;-0.12;91.64;100455.92;106689;1285;140031;-61
2022/12/26 07:57:26;;;;;;;43.50;25.10;;;;;;;-0.13;91.76;100453.48;106820;1303;22970;-61
2022/12/26 08:00:13;;;;;;;24.20;16.90;;;;;;;-0.11;91.94;100455.09;106833;1284;138759;-61
2022/12/26 08:02:40;;;;;;;25.00;16.90;;;;;;;-0.10;92.04;100451.74;106803;1302;22416;-61
2022/12/26 08:05:07;;;;;;;;;;;;;;;-0.09;91.92;100452.42;106813;1284;22498;-62
2022/12/26 08:07:34;;;;;;;24.10;14.40;;;;;;;-0.09;91.98;100454.69;106756;1303;124776;-61
2022/12/26 08:10:01;;;;;;;24.90;17.10;;;;;;;-0.11;92.19;100452.59;106817;1300;22158;-62
2022/12/26 08:12:27;;;;;;;25.50;17.30;;;;;;;-0.10;92.11;100453.35;106685;1302;139428;-61
2022/12/26 08:14:54;;;;;;;40.80;23.80;;;;;;;-0.10;92.07;100456.37;106815;1292;22813;-61
2022/12/26 08:17:21;;;;;;;32.80;20.50;;;;;;;-0.10;92.35;100459.81;106808;1300;139620;-61
2022/12/26 08:19:48;;;;;;;32.30;18.20;;;;;;;-0.08;92.38;100461.53;106812;1279;22160;-61
2022/12/26 08:22:15;;;;;;;;;;;;;;;-0.05;92.30;100465.66;106941;1300;23044;-62
2022/12/26 08:24:41;;;;;;;23.00;15.60;;;;;;;-0.03;92.33;100466.54;106720;1288;127004;-61
2022/12/26 08:27:09;;;;;;;22.80;15.10;;;;;;;-0.02;92.03;100460.23;106833;1302;22837;-62
2022/12/26 08:29:36;;;;;;;29.40;16.90;;;;;;;-0.04;91.99;100458.09;106635;1279;139731;-61
2022/12/26 08:32:03;;;;;;;23.60;14.10;;;;;;;-0.04;92.01;100452.94;106800;1291;22126;-61
2022/12/26 08:34:33;;;;;;;;;;;;;;;-0.04;91.96;100455.39;106833;1288;22366;-61
2022/12/26 08:37:00;;;;;;;22.30;13.80;;;;;;;-0.04;91.93;100460.47;106734;1303;124387;-61
2022/12/26 08:39:26;;;;;;;32.50;17.10;;;;;;;-0.03;91.78;100464.82;106849;1303;22132;-61
2022/12/26 08:41:53;;;;;;;79.40;40.70;;;;;;;-0.04;91.78;100459.90;106733;1293;139558;-61
2022/12/26 08:44:20;;;;;;;43.10;23.70;;;;;;;-0.02;91.82;100457.86;106845;1302;22133;-61
2022/12/26 08:46:55;;;;;;;27.00;15.90;;;;;;;0.03;91.73;100456.48;106927;1297;22919;-61
2022/12/26 08:49:21;;;;;;;107.80;45.90;;;;;;;0.06;91.95;100456.74;106767;1301;138239;-62
2022/12/26 08:51:48;;;;;;;53.90;27.10;;;;;;;0.06;91.78;100459.16;106497;1295;22961;-61
2022/12/26 08:54:15;;;;;;;50.30;22.60;;;;;;;0.09;91.62;100457.27;106727;1287;138390;-61
2022/12/26 08:56:41;;;;;;;26.60;15.00;;;;;;;0.11;91.44;100458.80;106831;1278;22851;-62
2022/12/26 08:59:08;;;;;;;23.00;13.20;;;;;;;0.14;91.46;100460.43;106861;1301;22207;-61
2022/12/26 09:01:35;;;;;;;;;;;;;;;0.15;91.23;100458.68;106659;1303;138433;-61
2022/12/26 09:04:02;;;;;;;21.90;14.00;;;;;;;0.16;91.26;100454.66;106843;1293;22203;-61
2022/12/26 09:06:34;;;;;;;20.30;13.80;;;;;;;0.18;91.24;100453.16;106766;1296;139919;-61
2022/12/26 09:27:27;;;;;;;169.50;69.90;;;;;;;0.51;89.93;100422.33;99902;1328;558068;-54
2022/12/26 09:29:54;;;;;;;62.30;30.00;;;;;;;0.56;89.16;100416.05;105407;1315;109477;-55
2022/12/26 09:32:21;;;;;;;75.30;33.10;;;;;;;0.51;88.85;100409.83;105548;1294;138754;-55
2022/12/26 09:34:48;;;;;;;35.40;18.40;;;;;;;0.46;88.59;100406.86;105648;1315;22402;-55
2022/12/26 09:37:15;;;;;;;27.10;15.40;;;;;;;0.42;88.86;100404.63;105678;1315;22273;-54
2022/12/26 09:39:42;;;;;;;;;;;;;;;0.39;88.93;100400.38;105564;1315;139530;-54
2022/12/26 09:42:39;;;;;;;80.50;30.60;;;;;;;0.35;89.05;100394.95;105621;1315;22208;-54
2022/12/26 09:45:14;;;;;;;46.40;29.30;;;;;;;0.29;89.07;100388.83;105470;1315;138888;-54
2022/12/26 09:48:02;;;;;;;32.00;18.20;;;;;;;0.30;89.32;100396.39;105634;1291;22176;-55
2022/12/26 09:50:31;;;;;;;28.20;16.80;;;;;;;0.29;89.48;100396.23;105543;1315;138446;-54
2022/12/26 09:53:24;;;;;;;30.60;14.50;;;;;;;0.30;89.43;100395.58;105478;1294;22267;-55
2022/12/26 09:55:51;;;;;;;20.70;13.30;;;;;;;0.29;89.49;100399.38;105505;1315;22212;-56
2022/12/26 09:58:25;;;;;;;23.20;14.60;;;;;;;0.31;89.45;100403.66;106320;1300;138140;-55
2022/12/26 10:00:57;;;;;;;24.20;14.70;;;;;;;0.32;89.50;100406.38;106504;1280;22121;-57
2022/12/26 10:03:24;;;;;;;21.00;15.00;;;;;;;0.34;89.43;100404.20;106380;1306;138554;-56
2022/12/26 10:05:57;;;;;;;18.90;13.70;;;;;;;0.38;89.48;100404.50;106381;1291;22193;-55
2022/12/26 10:08:33;;;;;;;18.00;11.50;;;;;;;0.41;89.61;100403.53;106382;1305;138128;-55
2022/12/26 10:11:00;;;;;;;21.50;12.00;;;;;;;0.41;89.39;100402.59;106472;1284;22140;-54
2022/12/26 10:13:50;;;;;;;14.60;10.80;;;;;;;0.41;89.22;100403.27;106397;1307;22126;-54
2022/12/26 10:16:20;;;;;;;24.20;14.00;;;;;;;0.43;89.18;100404.70;106286;1300;139827;-54
2022/12/26 10:19:02;;;;;;;21.60;13.40;;;;;;;0.45;89.14;100401.25;106466;1298;22248;-55
2022/12/26 10:21:29;;;;;;;18.10;11.80;;;;;;;0.46;89.28;100404.54;106241;1306;138071;-55
2022/12/26 10:24:00;;;;;;;22.00;13.00;;;;;;;0.46;89.20;100396.80;106455;1283;22147;-55
2022/12/26 10:26:35;;;;;;;42.10;23.80;;;;;;;0.46;89.26;100393.20;106068;1299;138983;-54
2022/12/26 10:29:08;;;;;;;22.60;14.50;;;;;;;0.43;88.87;100391.66;106429;1298;22935;-54
2022/12/26 10:31:41;;;;;;;18.20;12.60;;;;;;;0.40;88.93;100390.27;106458;1284;22270;-54
2022/12/26 10:34:34;;;;;;;147.20;44.00;;;;;;;0.39;89.09;100375.48;106331;1293;137917;-54
2022/12/26 10:37:30;;;;;;;194.90;55.00;;;;;;;0.39;89.12;100369.38;106372;1300;22187;-55
2022/12/26 10:40:16;;;;;;;48.80;20.20;;;;;;;0.37;88.88;100367.67;106236;1284;139032;-58
2022/12/26 10:42:44;;;;;;;35.10;17.10;;;;;;;0.36;88.97;100367.94;106353;1293;22664;-58
2022/12/26 10:45:15;;;;;;;24.70;14.20;;;;;;;0.34;88.91;100360.31;106366;1282;138560;-58
2022/12/26 10:47:45;;;;;;;26.80;12.80;;;;;;;0.34;89.12;100358.50;106474;1292;22394;-58
2022/12/26 10:50:17;;;;;;;21.40;13.30;;;;;;;0.34;89.05;100365.13;106266;1306;139665;-57
2022/12/26 10:52:51;;;;;;;20.50;12.20;;;;;;;0.35;89.20;100366.53;106273;1305;22239;-57
2022/12/26 10:55:19;;;;;;;99.30;44.00;;;;;;;0.34;89.36;100357.30;106470;1295;22285;-58
2022/12/26 10:57:55;;;;;;;31.80;19.80;;;;;;;0.40;89.18;100363.39;106311;1293;137810;-58
2022/12/26 11:00:23;;;;;;;;;;;;;;;0.40;89.22;100360.34;106186;1294;22400;-57
2022/12/26 11:03:06;;;;;;;24.60;14.50;;;;;;;0.40;89.24;100355.67;106352;1294;125056;-57
2022/12/26 11:05:38;;;;;;;23.10;13.90;;;;;;;0.38;89.28;100358.60;106379;1306;22143;-56
2022/12/26 11:08:37;;;;;;;21.90;14.50;;;;;;;0.38;89.47;100356.35;106208;1304;138458;-57
2022/12/26 11:11:45;;;;;;;30.60;16.10;;;;;;;0.38;89.51;100355.41;106471;1291;22118;-58
2022/12/26 11:14:31;;;;;;;31.20;18.50;;;;;;;0.38;89.66;100349.48;106242;1305;139380;-57
2022/12/26 11:17:06;;;;;;;22.90;15.00;;;;;;;0.40;89.60;100346.40;106447;1307;22114;-57
2022/12/26 11:19:36;;;;;;;20.00;14.10;;;;;;;0.38;89.60;100344.30;106461;1291;22319;-57
2022/12/26 11:22:27;;;;;;;46.60;17.10;;;;;;;0.43;89.84;100345.48;106345;1300;138206;-59
2022/12/26 11:25:09;;;;;;;151.00;53.30;;;;;;;0.45;89.81;100328.50;106480;1306;22276;-59
2022/12/26 11:27:39;;;;;;;58.30;25.90;;;;;;;0.46;89.85;100326.42;106330;1291;138578;-58
2022/12/26 11:30:13;;;;;;;26.10;14.50;;;;;;;0.46;89.68;100326.73;106463;1291;22249;-58
2022/12/26 11:32:41;;;;;;;24.50;15.10;;;;;;;0.45;89.47;100326.33;106323;1305;140188;-58
2022/12/26 11:35:22;;;;;;;39.50;22.20;;;;;;;0.44;89.42;100322.52;106498;1305;22167;-58
2022/12/26 11:37:51;;;;;;;30.90;15.70;;;;;;;0.45;89.64;100320.21;106462;1306;22170;-58
2022/12/26 11:41:30;;;;;;;22.70;14.90;;;;;;;0.46;89.63;100321.90;104122;1290;139409;-57
2022/12/26 11:43:32;;;;;;;22.40;13.40;;;;;;;0.47;89.31;100318.78;101949;1284;22498;-57
2022/12/26 11:45:59;;;;;;;58.00;27.90;;;;;;;0.47;89.27;100321.13;101878;1291;138177;-59
2022/12/26 11:48:25;;;;;;;42.20;22.10;;;;;;;0.47;89.20;100323.11;101904;1298;24545;-58
2022/12/26 11:50:52;;;;;;;24.20;15.10;;;;;;;0.48;89.13;100325.35;101865;1291;138489;-58
2022/12/26 11:53:19;;;;;;;;;;;;;;;0.44;89.46;100311.66;101927;1298;25277;-57
2022/12/26 11:55:58;;;;;;;20.90;13.10;;;;;;;0.48;89.05;100323.00;101772;1291;22494;-58
2022/12/26 11:58:28;;;;;;;20.00;13.20;;;;;;;0.45;89.11;100322.64;106377;1305;137795;-59
2022/12/26 12:00:58;;;;;;;22.40;13.60;;;;;;;0.42;88.96;100320.80;106457;1298;22159;-58
2022/12/26 12:03:40;;;;;;;24.00;14.80;;;;;;;0.40;88.89;100323.72;106357;1298;138384;-60
2022/12/26 12:06:40;;;;;;;19.70;12.10;;;;;;;0.37;88.87;100330.12;106462;1306;22134;-59
2022/12/26 12:09:19;;;;;;;17.30;11.70;;;;;;;0.35;88.69;100332.14;106411;1306;138941;-58
2022/12/26 12:12:17;;;;;;;17.10;11.30;;;;;;;0.33;88.83;100328.24;106415;1305;22216;-59
2022/12/26 12:15:02;;;;;;;18.20;12.30;;;;;;;0.33;89.04;100322.85;105849;1306;138219;-58
2022/12/26 12:17:46;;;;;;;17.40;12.40;;;;;;;0.36;89.09;100313.94;105974;1309;22246;-58
2022/12/26 12:20:37;;;;;;;38.10;17.00;;;;;;;0.39;89.17;100320.77;105946;1304;138246;-58
2022/12/26 12:23:16;;;;;;;72.00;31.90;;;;;;;0.42;89.19;100329.50;106046;1306;22191;-58
2022/12/26 12:25:49;;;;;;;39.60;21.60;;;;;;;0.45;89.39;100331.86;105939;1307;22313;-59
2022/12/26 12:28:41;;;;;;;117.50;56.90;;;;;;;0.48;89.27;100329.58;105946;1297;138141;-59
2022/12/26 12:31:20;;;;;;;50.60;26.30;;;;;;;0.50;89.17;100327.36;106063;1311;22225;-58
2022/12/26 12:34:12;;;;;;;30.80;18.20;;;;;;;0.51;89.19;100319.72;105847;1297;139160;-59
2022/12/26 12:36:54;;;;;;;26.30;16.50;;;;;;;0.51;89.08;100307.79;105928;1297;22163;-58
2022/12/26 12:39:46;;;;;;;29.00;16.80;;;;;;;0.51;89.06;100302.25;105812;1312;138167;-58
2022/12/26 12:42:22;;;;;;;31.00;17.20;;;;;;;0.50;88.64;100305.73;105946;1297;22332;-59
2022/12/26 12:45:31;;;;;;;83.50;32.80;;;;;;;0.47;88.64;100305.67;105739;1290;138866;-58
2022/12/26 12:48:22;;;;;;;40.70;19.60;;;;;;;0.42;88.25;100307.55;105973;1311;22185;-58
2022/12/26 12:51:11;;;;;;;91.60;35.00;;;;;;;0.36;88.43;100301.64;105978;1305;138592;-58
2022/12/26 12:53:53;;;;;;;81.20;34.10;;;;;;;0.29;88.33;100300.39;106471;1305;22224;-58
2022/12/26 12:56:45;;;;;;;46.40;27.70;;;;;;;0.25;88.72;100300.05;106368;1298;139006;-58
2022/12/26 12:59:27;;;;;;;31.80;21.20;;;;;;;0.20;88.51;100303.56;106452;1284;23462;-58
2022/12/26 13:01:56;;;;;;;26.30;17.20;;;;;;;0.15;88.80;100301.30;106446;1291;22406;-58
2022/12/26 13:04:28;;;;;;;25.00;17.20;;;;;;;0.12;88.94;100296.16;106148;1308;138433;-58
2022/12/26 13:07:08;;;;;;;28.90;18.10;;;;;;;0.10;88.99;100292.25;106309;1306;22154;-58
2022/12/26 13:09:49;;;;;;;39.40;20.10;;;;;;;0.07;89.38;100285.12;106289;1290;139287;-58
2022/12/26 13:12:19;;;;;;;39.10;21.60;;;;;;;0.07;89.41;100280.16;106420;1291;22244;-59
2022/12/26 13:14:49;;;;;;;45.10;25.30;;;;;;;0.07;89.38;100276.31;106274;1280;138271;-59
2022/12/26 13:17:24;;;;;;;52.80;28.20;;;;;;;0.07;89.64;100276.38;106386;1305;22128;-59
2022/12/26 13:20:15;;;;;;;39.40;23.60;;;;;;;0.04;89.59;100274.54;106345;1301;22258;-59
2022/12/26 13:25:43;;;;;;;37.60;20.20;;;;;;;-0.06;89.84;100267.48;106394;1298;22420;-59
2022/12/26 13:28:13;;;;;;;69.00;28.50;;;;;;;-0.10;90.09;100264.86;106260;1305;138665;-59
2022/12/26 13:30:40;;;;;;;147.40;52.30;;;;;;;-0.12;90.09;100261.89;106443;1298;23507;-59
2022/12/26 13:33:12;;;;;;;73.90;34.40;;;;;;;-0.15;90.39;100256.69;106136;1306;139475;-59
2022/12/26 13:35:58;;;;;;;99.80;36.70;;;;;;;-0.17;90.40;100250.97;106473;1300;22167;-60
2022/12/26 13:38:54;;;;;;;126.00;42.00;;;;;;;-0.19;90.77;100248.16;106349;1306;139723;-59
2022/12/26 13:44:19;;;;;;;72.50;29.00;;;;;;;-0.28;90.72;100246.17;106395;1284;22326;-59
2022/12/26 13:46:46;;;;;;;93.50;36.30;;;;;;;-0.35;90.78;100242.47;106366;1302;22136;-59
2022/12/26 13:49:34;;;;;;;72.90;39.80;;;;;;;-0.43;90.88;100239.73;106422;1306;22161;-58
2022/12/26 13:52:10;;;;;;;34.80;17.00;;;;;;;-0.47;91.28;100241.88;106336;1299;139036;-59
2022/12/26 13:55:06;;;;;;;27.10;16.20;;;;;;;-0.53;91.47;100252.83;106450;1301;22113;-59
2022/12/26 13:57:41;;;;;;;263.10;83.40;;;;;;;-0.57;91.50;100250.77;106366;1284;138886;-58
2022/12/26 14:00:15;;;;;;;112.40;35.90;;;;;;;-0.59;91.60;100246.45;106467;1299;22607;-59